createdAt,value
2022-10-29T00:03:03.508Z,0
2022-10-29T00:08:03.356Z,0
2022-10-29T00:13:03.332Z,0
2022-10-29T00:18:03.361Z,0
2022-10-29T00:23:03.391Z,0
2022-10-29T00:28:03.306Z,0
2022-10-29T00:33:03.336Z,0
2022-10-29T00:38:03.363Z,0
2022-10-29T00:43:03.371Z,0
2022-10-29T00:48:03.362Z,0
2022-10-29T00:53:03.333Z,0
2022-10-29T00:58:03.334Z,0
2022-10-29T01:03:03.468Z,0
2022-10-29T01:08:03.317Z,0
2022-10-29T01:13:03.396Z,0
2022-10-29T01:18:03.321Z,0
2022-10-29T01:23:03.386Z,0
2022-10-29T01:28:03.342Z,0
2022-10-29T01:33:03.327Z,0
2022-10-29T01:38:03.346Z,0
2022-10-29T01:43:03.358Z,0
2022-10-29T01:48:03.343Z,0
2022-10-29T01:53:03.332Z,0
2022-10-29T01:58:03.449Z,0
2022-10-29T02:03:03.359Z,0
2022-10-29T02:08:03.318Z,0
2022-10-29T02:13:03.305Z,0
2022-10-29T02:18:03.324Z,0
2022-10-29T02:23:03.339Z,0
2022-10-29T02:28:03.315Z,0
2022-10-29T02:33:03.313Z,0
2022-10-29T02:38:03.335Z,0
2022-10-29T02:43:03.316Z,0
2022-10-29T02:48:03.285Z,0
2022-10-29T02:53:03.329Z,0
2022-10-29T02:58:03.297Z,0
2022-10-29T03:03:03.434Z,0
2022-10-29T03:08:03.318Z,0
2022-10-29T03:13:03.288Z,0
2022-10-29T03:18:03.309Z,0
2022-10-29T03:23:03.348Z,0
2022-10-29T03:28:03.293Z,0
2022-10-29T03:33:03.293Z,0
2022-10-29T03:38:03.329Z,0
2022-10-29T03:43:03.348Z,0
2022-10-29T03:48:03.330Z,0
2022-10-29T03:53:03.321Z,0
2022-10-29T03:58:03.295Z,0
2022-10-29T04:03:03.402Z,0
2022-10-29T04:08:03.289Z,0
2022-10-29T04:13:03.282Z,0
2022-10-29T04:18:03.302Z,0
2022-10-29T04:28:42.283Z,0
2022-10-29T04:33:03.273Z,0
2022-10-29T04:38:03.303Z,0
2022-10-29T04:43:03.332Z,0
2022-10-29T04:48:03.281Z,0
2022-10-29T04:53:03.312Z,0
2022-10-29T04:58:03.280Z,0
2022-10-29T05:03:03.316Z,0
2022-10-29T05:08:03.292Z,0
2022-10-29T05:13:03.250Z,0
2022-10-29T05:18:03.323Z,0
2022-10-29T05:23:03.310Z,0
2022-10-29T05:28:03.300Z,0
2022-10-29T05:33:03.271Z,0
2022-10-29T05:38:03.310Z,0
2022-10-29T05:43:03.299Z,0
2022-10-29T05:48:03.329Z,0
2022-10-29T05:53:03.540Z,0
2022-10-29T05:58:03.629Z,0
2022-10-29T06:03:03.705Z,0
2022-10-29T06:08:03.518Z,0
2022-10-29T06:13:03.524Z,0
2022-10-29T06:18:03.535Z,0
2022-10-29T06:23:04.520Z,1
2022-10-29T06:28:04.514Z,2
2022-10-29T06:33:04.528Z,6
2022-10-29T06:38:07.703Z,9
2022-10-29T06:43:09.775Z,14
2022-10-29T06:48:09.772Z,11
2022-10-29T06:53:09.780Z,14
2022-10-29T06:58:10.399Z,16
2022-10-29T07:03:10.044Z,22
2022-10-29T07:08:09.986Z,24
2022-10-29T07:13:10.015Z,29
2022-10-29T07:18:10.008Z,38
2022-10-29T07:23:10.016Z,34
2022-10-29T07:28:10.054Z,37
2022-10-29T07:33:09.978Z,34
2022-10-29T07:38:11.039Z,43
2022-10-29T07:43:10.029Z,51
2022-10-29T07:48:09.988Z,58
2022-10-29T07:53:09.999Z,85
2022-10-29T07:58:10.005Z,137
2022-10-29T08:03:09.997Z,140
2022-10-29T08:08:09.982Z,92
2022-10-29T08:13:09.969Z,141
2022-10-29T08:18:10.006Z,240
2022-10-29T08:23:10.019Z,228
2022-10-29T08:28:09.985Z,208
2022-10-29T08:33:09.994Z,218
2022-10-29T08:38:09.977Z,213
2022-10-29T08:43:09.985Z,207
2022-10-29T08:48:09.975Z,108
2022-10-29T08:53:22.676Z,93
2022-10-29T08:58:09.964Z,94
2022-10-29T09:03:10.017Z,73
2022-10-29T09:08:09.965Z,61
2022-10-29T09:13:09.958Z,69
2022-10-29T09:18:10.001Z,55
2022-10-29T09:23:09.973Z,41
2022-10-29T09:28:09.986Z,59
2022-10-29T09:33:09.954Z,132
2022-10-29T09:38:09.985Z,152
2022-10-29T09:43:10.003Z,197
2022-10-29T09:48:09.975Z,182
2022-10-29T09:53:09.960Z,150
2022-10-29T09:58:09.989Z,176
2022-10-29T10:03:10.327Z,216
2022-10-29T10:08:10.215Z,201
2022-10-29T10:13:14.190Z,289
2022-10-29T10:18:10.218Z,443
2022-10-29T10:23:10.256Z,208
2022-10-29T10:28:10.169Z,319
2022-10-29T10:33:10.268Z,455
2022-10-29T10:38:10.244Z,480
2022-10-29T10:43:10.212Z,501
2022-10-29T10:48:10.346Z,386
2022-10-29T10:53:10.222Z,237
2022-10-29T10:58:10.207Z,273
2022-10-29T11:03:10.322Z,367
2022-10-29T11:08:10.206Z,427
2022-10-29T11:13:10.195Z,426
2022-10-29T11:18:10.264Z,484
2022-10-29T11:23:10.223Z,459
2022-10-29T11:28:10.188Z,377
2022-10-29T11:33:10.240Z,536
2022-10-29T11:38:10.188Z,592
2022-10-29T11:43:10.235Z,581
2022-10-29T11:48:10.287Z,550
2022-10-29T11:53:10.226Z,371
2022-10-29T11:58:10.215Z,201
2022-10-29T12:03:10.254Z,564
2022-10-29T12:08:10.223Z,471
2022-10-29T12:13:10.199Z,460
2022-10-29T12:18:10.344Z,531
2022-10-29T12:23:13.659Z,466
2022-10-29T12:28:10.216Z,491
2022-10-29T12:33:10.199Z,354
2022-10-29T12:38:10.433Z,148
2022-10-29T12:43:10.523Z,159
2022-10-29T12:48:10.431Z,145
2022-10-29T12:53:10.455Z,129
2022-10-29T12:58:10.445Z,102
2022-10-29T13:03:10.599Z,103
2022-10-29T13:08:10.464Z,141
2022-10-29T13:13:10.432Z,183
2022-10-29T13:18:10.437Z,328
2022-10-29T13:23:10.724Z,258
2022-10-29T13:28:10.467Z,194
2022-10-29T13:33:10.470Z,377
2022-10-29T13:38:10.465Z,287
2022-10-29T13:43:10.451Z,127
2022-10-29T13:48:10.444Z,81
2022-10-29T13:53:13.282Z,80
2022-10-29T13:58:10.439Z,104
2022-10-29T14:03:13.949Z,133
2022-10-29T14:08:10.467Z,127
2022-10-29T14:13:10.458Z,114
2022-10-29T14:18:10.428Z,65
2022-10-29T14:23:10.474Z,69
2022-10-29T14:28:10.436Z,67
2022-10-29T14:33:10.468Z,59
2022-10-29T14:38:11.341Z,46
2022-10-29T14:43:10.451Z,32
2022-10-29T14:48:10.438Z,33
2022-10-29T14:53:10.466Z,28
2022-10-29T14:58:10.437Z,21
2022-10-29T15:03:10.566Z,20
2022-10-29T15:08:10.448Z,18
2022-10-29T15:13:10.460Z,15
2022-10-29T15:18:10.443Z,13
2022-10-29T15:23:10.450Z,11
2022-10-29T15:28:10.457Z,14
2022-10-29T15:33:10.462Z,12
2022-10-29T15:38:10.453Z,10
2022-10-29T15:43:10.455Z,8
2022-10-29T15:48:10.433Z,0
2022-10-29T15:53:10.423Z,1
2022-10-29T15:58:10.430Z,0
2022-10-29T16:03:10.450Z,0
2022-10-29T16:08:10.444Z,0
2022-10-29T16:13:10.409Z,0
2022-10-29T16:18:10.661Z,0
2022-10-29T16:23:10.722Z,0
2022-10-29T16:28:10.652Z,0
2022-10-29T16:33:10.692Z,0
2022-10-29T16:38:10.671Z,0
2022-10-29T16:43:10.702Z,0
2022-10-29T16:48:10.655Z,0
2022-10-29T16:53:10.680Z,0
2022-10-29T16:58:10.680Z,0
2022-10-29T17:03:11.902Z,0
2022-10-29T17:08:10.693Z,0
2022-10-29T17:13:10.675Z,0
2022-10-29T17:18:10.664Z,0
2022-10-29T17:23:10.712Z,0
2022-10-29T17:28:10.686Z,0
2022-10-29T17:33:10.647Z,0
2022-10-29T17:38:10.668Z,0
2022-10-29T17:43:10.672Z,0
2022-10-29T17:48:10.684Z,0
2022-10-29T17:53:10.692Z,0
2022-10-29T17:58:14.150Z,0
2022-10-29T18:03:10.685Z,0
2022-10-29T18:08:10.687Z,0
2022-10-29T18:13:10.660Z,0
2022-10-29T18:18:10.656Z,0
2022-10-29T18:23:10.706Z,0
2022-10-29T18:28:10.644Z,0
2022-10-29T18:38:10.655Z,0
2022-10-29T18:43:10.677Z,0
2022-10-29T18:48:10.825Z,0
2022-10-29T18:53:10.664Z,0
2022-10-29T18:58:10.634Z,0
2022-10-29T19:03:10.719Z,0
2022-10-29T19:08:10.625Z,0
2022-10-29T19:13:10.677Z,0
2022-10-29T19:18:10.641Z,0
2022-10-29T19:23:10.687Z,0
2022-10-29T19:28:10.667Z,0
2022-10-29T19:33:10.680Z,0
2022-10-29T19:38:10.632Z,0
2022-10-29T19:43:10.688Z,0
2022-10-29T19:48:10.652Z,0
2022-10-29T19:53:10.632Z,0
2022-10-29T19:58:10.633Z,0
2022-10-29T20:03:10.654Z,0
2022-10-29T20:08:12.933Z,0
2022-10-29T20:13:10.633Z,0
2022-10-29T20:18:10.627Z,0
2022-10-29T20:23:10.685Z,0
2022-10-29T20:28:10.631Z,0
2022-10-29T20:33:10.624Z,0
2022-10-29T20:38:10.632Z,0
2022-10-29T20:43:10.690Z,0
2022-10-29T20:48:10.620Z,0
2022-10-29T20:53:10.717Z,0
2022-10-29T20:58:10.621Z,0
2022-10-29T21:03:10.653Z,0
2022-10-29T21:08:10.624Z,0
2022-10-29T21:13:10.614Z,0
2022-10-29T21:18:10.608Z,0
2022-10-29T21:23:10.731Z,0
2022-10-29T21:28:10.640Z,0
2022-10-29T21:33:10.648Z,0
2022-10-29T21:38:10.695Z,0
2022-10-29T21:43:10.651Z,0
2022-10-29T21:48:10.606Z,0
2022-10-29T21:53:10.664Z,0
2022-10-29T21:58:10.637Z,0
2022-10-29T22:03:10.631Z,0
2022-10-29T22:08:10.617Z,0
2022-10-29T22:13:11.984Z,0
2022-10-29T22:18:10.619Z,0
2022-10-29T22:23:10.663Z,0
2022-10-29T22:28:10.615Z,0
2022-10-29T22:33:10.619Z,0
2022-10-29T22:38:10.611Z,0
2022-10-29T22:43:10.616Z,0
2022-10-29T22:48:10.613Z,0
2022-10-29T22:53:10.621Z,0
2022-10-29T22:58:10.603Z,0
2022-10-29T23:03:10.619Z,0
2022-10-29T23:08:10.613Z,0
2022-10-29T23:13:10.604Z,0
2022-10-29T23:18:10.610Z,0
2022-10-29T23:23:10.613Z,0
2022-10-29T23:28:10.603Z,0
2022-10-29T23:33:10.595Z,0
2022-10-29T23:38:10.616Z,0
2022-10-29T23:43:10.605Z,0
2022-10-29T23:48:10.577Z,0
2022-10-29T23:53:10.594Z,0
2022-10-29T23:58:10.599Z,0
